< < Back
Terminal Aerodrome Forecast


Current Version              Previous Versions:   1  2  3  4  5  6  7  8  9  

Terminal Aerodrome Forecast

489
FTUS42 KMLB 252340
TAFDAB
TAF
KDAB 252340Z 2600/2624 05009KT P6SM FEW020 SCT035
     FM260300 07005KT P6SM VCSH SCT025
     FM261400 06012KT P6SM SCT025 BKN250=

Latest METAR

530
SAUS80 KWBC 260300 RRA
MTRDAB
METAR KDAB 260253Z 05007KT 10SM FEW090 BKN150 28/24 A3002 RMK AO2 SLP165
T02780244 56003


USA.gov is the U.S. government's official web portal to all federal, state and local government web resources and services.